Time;durP1;ratioP1;P1;durP2;ratioP2;P2;SDS_P1;SDS_P2;PMS_P1;PMS_P2;Temp;Humidity;BMP_temperature;BMP_pressure;BME280_temperature;BME280_humidity;BME280_pressure;Samples;Min_cycle;Max_cycle;Signal;HPM_P1;HPM_P2
2022/11/27 00:01:58;;;;;;;9.67;7.30;;;;;;;5.06;77.40;96814.16;5031103;28;20225;-81
2022/11/27 00:04:25;;;;;;;8.37;6.87;;;;;;;5.01;78.22;96804.28;5031585;28;20191;-80
2022/11/27 00:06:51;;;;;;;7.77;6.97;;;;;;;5.00;78.27;96812.88;5030971;28;20198;-81
2022/11/27 00:09:19;;;;;;;7.87;6.70;;;;;;;5.02;78.37;96815.31;5030406;28;20202;-81
2022/11/27 00:11:45;;;;;;;8.23;7.27;;;;;;;5.00;78.49;96818.00;5030830;28;20218;-81
2022/11/27 00:14:14;;;;;;;7.20;6.20;;;;;;;5.02;78.39;96817.84;5031444;28;20272;-80
2022/11/27 00:16:42;;;;;;;9.70;6.70;;;;;;;4.97;77.77;96817.41;5038694;28;20201;-81
2022/11/27 00:19:09;;;;;;;8.60;7.37;;;;;;;4.94;78.39;96827.81;5055146;28;20210;-81
2022/11/27 00:21:36;;;;;;;7.93;6.90;;;;;;;4.91;77.99;96825.50;5032295;28;20221;-81
2022/11/27 00:24:05;;;;;;;7.77;6.73;;;;;;;4.91;78.29;96818.66;5031971;28;20209;-82
2022/11/27 00:26:34;;;;;;;7.07;6.30;;;;;;;4.89;78.05;96830.69;5031825;28;20194;-82
2022/11/27 00:29:01;;;;;;;7.07;6.30;;;;;;;4.92;78.32;96832.22;5031442;28;20647;-81
2022/11/27 00:31:30;;;;;;;9.27;7.13;;;;;;;4.84;77.51;96825.94;5032040;28;20224;-81
2022/11/27 00:33:58;;;;;;;7.70;6.90;;;;;;;4.83;77.71;96824.28;5031980;28;20205;-81
2022/11/27 00:36:25;;;;;;;8.03;6.60;;;;;;;4.85;78.05;96826.75;5031945;28;20202;-82
2022/11/27 00:38:51;;;;;;;7.23;6.50;;;;;;;4.84;77.73;96813.16;5031009;28;20569;-82
2022/11/27 00:41:20;;;;;;;9.43;7.90;;;;;;;4.75;77.28;96813.84;5031616;28;20206;-82
2022/11/27 00:43:48;;;;;;;8.13;7.20;;;;;;;4.73;77.06;96805.47;5031722;28;20260;-82
2022/11/27 00:46:15;;;;;;;8.47;7.63;;;;;;;4.69;77.15;96791.31;5031535;28;20195;-80
2022/11/27 00:48:43;;;;;;;8.17;7.00;;;;;;;4.64;76.77;96788.28;5031314;28;20203;-82
2022/11/27 00:51:11;;;;;;;8.00;7.20;;;;;;;4.62;77.01;96787.56;5030707;28;20554;-82
2022/11/27 00:53:37;;;;;;;7.93;6.13;;;;;;;4.61;76.74;96788.53;5030780;28;20615;-82
2022/11/27 00:56:04;;;;;;;7.83;6.70;;;;;;;4.63;77.17;96793.47;5030861;28;20198;-83
2022/11/27 00:58:31;;;;;;;7.57;6.57;;;;;;;4.62;77.20;96792.66;5025321;28;20201;-80
2022/11/27 01:01:01;;;;;;;7.50;6.50;;;;;;;4.45;76.29;96793.06;5030428;28;20454;-81
2022/11/27 01:03:29;;;;;;;9.53;6.83;;;;;;;4.33;77.45;96792.19;5030190;28;20193;-83
2022/11/27 01:05:56;;;;;;;8.37;6.63;;;;;;;4.36;77.78;96783.53;5030618;28;20182;-83
2022/11/27 01:08:23;;;;;;;8.07;7.10;;;;;;;4.25;77.96;96776.63;5030392;28;20888;-81
2022/11/27 01:10:50;;;;;;;8.93;6.70;;;;;;;4.32;77.90;96777.00;5030237;28;20201;-82
2022/11/27 01:13:17;;;;;;;8.03;7.23;;;;;;;4.30;78.07;96774.56;5029400;28;20233;-82
2022/11/27 01:15:44;;;;;;;7.73;6.93;;;;;;;4.35;78.14;96780.16;5030491;28;20666;-80
2022/11/27 01:18:12;;;;;;;8.33;6.63;;;;;;;4.45;77.46;96773.47;5030390;28;20202;-80
2022/11/27 01:20:39;;;;;;;8.17;6.43;;;;;;;4.47;77.38;96773.38;5029953;28;20210;-80
2022/11/27 01:23:06;;;;;;;8.10;7.03;;;;;;;4.38;77.16;96779.13;5030351;28;22015;-81
2022/11/27 01:25:34;;;;;;;9.07;6.90;;;;;;;4.29;77.73;96772.13;5030497;28;20547;-83
2022/11/27 01:28:01;;;;;;;10.03;7.20;;;;;;;4.34;77.92;96770.06;5030049;28;20252;-82
2022/11/27 01:30:27;;;;;;;10.37;7.70;;;;;;;4.35;77.49;96769.16;5029804;28;20611;-82
2022/11/27 01:32:53;;;;;;;11.80;7.67;;;;;;;4.39;77.64;96763.75;5030337;28;20308;-80
2022/11/27 01:35:21;;;;;;;11.27;7.47;;;;;;;4.37;77.24;96769.84;5029895;28;20673;-80
2022/11/27 01:37:48;;;;;;;10.30;7.73;;;;;;;4.33;77.70;96758.25;5029865;28;20198;-82
2022/11/27 01:40:14;;;;;;;9.23;7.63;;;;;;;4.34;77.55;96762.44;5029619;28;20198;-79
2022/11/27 01:42:40;;;;;;;9.87;7.60;;;;;;;4.30;77.49;96758.47;5029675;28;20218;-81
2022/11/27 01:45:10;;;;;;;8.87;7.07;;;;;;;4.24;76.79;96754.59;5029732;28;20194;-81
2022/11/27 01:47:43;;;;;;;9.13;7.10;;;;;;;4.28;76.78;96755.19;5029637;28;20190;-80
2022/11/27 01:50:14;;;;;;;8.53;6.90;;;;;;;4.28;76.90;96760.31;5029667;28;20709;-81
2022/11/27 01:52:47;;;;;;;7.47;6.70;;;;;;;4.26;77.11;96762.97;5029088;28;20222;-82
2022/11/27 01:55:19;;;;;;;9.17;6.90;;;;;;;4.30;77.21;96761.81;5029943;28;20232;-81
2022/11/27 01:57:48;;;;;;;9.10;6.90;;;;;;;4.26;76.91;96757.03;5029225;28;20198;-80
2022/11/27 02:00:17;;;;;;;8.23;7.03;;;;;;;4.16;77.11;96756.91;5027741;28;20569;-84
2022/11/27 02:02:44;;;;;;;8.17;7.37;;;;;;;4.17;77.16;96758.53;5029636;28;20225;-80
2022/11/27 02:05:15;;;;;;;8.37;6.80;;;;;;;4.04;77.11;96753.47;5029467;28;20205;-79
2022/11/27 02:07:43;;;;;;;7.63;6.47;;;;;;;3.98;77.83;96748.00;5029458;28;20186;-80
2022/11/27 02:10:10;;;;;;;9.90;6.90;;;;;;;4.00;77.57;96752.06;5029759;28;20209;-80
2022/11/27 02:12:45;;;;;;;7.37;6.53;;;;;;;4.03;77.49;96745.94;5029030;28;20224;-81
2022/11/27 02:15:19;;;;;;;8.07;6.70;;;;;;;4.03;77.42;96738.31;5029837;28;20186;-80
2022/11/27 02:17:52;;;;;;;11.37;7.57;;;;;;;4.10;77.42;96736.94;5028927;28;20538;-81
2022/11/27 02:20:28;;;;;;;8.80;7.37;;;;;;;3.94;77.38;96738.94;5029048;28;20194;-81
2022/11/27 02:23:14;;;;;;;9.20;7.03;;;;;;;3.87;77.81;96725.78;5029072;28;20206;-81
2022/11/27 02:25:51;;;;;;;10.53;7.33;;;;;;;3.90;78.18;96722.22;5020984;28;20190;-81
2022/11/27 02:28:32;;;;;;;8.07;7.03;;;;;;;3.96;78.12;96726.91;5028596;28;20206;-80
2022/11/27 02:31:07;;;;;;;8.13;6.97;;;;;;;4.01;78.34;96718.03;5028139;28;20685;-81
2022/11/27 02:33:40;;;;;;;9.60;7.40;;;;;;;4.02;77.90;96711.19;5033672;28;20205;-80
2022/11/27 02:36:11;;;;;;;8.63;7.40;;;;;;;4.05;78.12;96706.66;5033186;28;20209;-80
2022/11/27 02:38:41;;;;;;;9.23;7.33;;;;;;;4.10;77.29;96709.72;5032671;28;20210;-81
2022/11/27 02:41:12;;;;;;;8.87;6.97;;;;;;;4.06;77.56;96707.47;5032707;28;20190;-82
2022/11/27 02:43:42;;;;;;;8.03;7.13;;;;;;;4.05;77.25;96706.66;5033095;28;20201;-81
2022/11/27 02:46:12;;;;;;;11.17;8.93;;;;;;;3.90;77.23;96702.66;5033153;28;20557;-80
2022/11/27 02:48:44;;;;;;;9.57;7.10;;;;;;;3.99;78.00;96703.75;5024293;28;20194;-79
2022/11/27 02:51:13;;;;;;;7.90;6.80;;;;;;;4.04;78.11;96699.94;5033284;28;20569;-83
2022/11/27 02:53:46;;;;;;;9.67;7.27;;;;;;;4.02;78.14;96693.34;5033288;28;20214;-82
2022/11/27 02:56:16;;;;;;;8.70;7.00;;;;;;;4.04;78.54;96683.88;5032394;28;20214;-82
2022/11/27 02:58:45;;;;;;;9.03;6.80;;;;;;;4.07;78.89;96679.34;5031331;28;20585;-82
2022/11/27 03:01:15;;;;;;;10.07;6.40;;;;;;;4.10;79.12;96671.47;5032714;28;20205;-82
2022/11/27 03:03:46;;;;;;;7.63;6.00;;;;;;;4.15;79.00;96669.44;5033260;28;20201;-81
2022/11/27 03:06:18;;;;;;;7.57;6.30;;;;;;;4.08;78.88;96663.13;5024127;28;20202;-81
2022/11/27 03:08:50;;;;;;;9.30;6.83;;;;;;;4.14;78.89;96665.25;5032567;28;20202;-81
2022/11/27 03:11:17;;;;;;;8.73;5.73;;;;;;;4.15;79.37;96655.88;5031961;28;20681;-81
2022/11/27 03:13:47;;;;;;;8.20;5.80;;;;;;;4.16;79.02;96658.31;5031673;28;20214;-81
2022/11/27 03:16:22;;;;;;;6.47;5.27;;;;;;;4.17;78.81;96656.56;5033138;28;20596;-80
2022/11/27 03:18:57;;;;;;;8.03;5.03;;;;;;;4.17;79.34;96656.56;5032590;28;20193;-80
2022/11/27 03:21:30;;;;;;;6.37;5.10;;;;;;;4.16;78.98;96660.03;5031667;28;20233;-82
2022/11/27 03:23:57;;;;;;;8.10;6.17;;;;;;;4.13;78.92;96665.34;5032485;28;20202;-83
2022/11/27 03:26:24;;;;;;;6.60;5.53;;;;;;;4.15;78.42;96658.41;5032433;28;20198;-80
2022/11/27 03:28:53;;;;;;;8.23;5.47;;;;;;;4.09;78.49;96656.31;5033644;28;20198;-83
2022/11/27 03:31:22;;;;;;;6.43;5.43;;;;;;;4.17;78.45;96659.13;5024730;28;20214;-80
2022/11/27 03:33:49;;;;;;;6.97;5.23;;;;;;;4.21;77.96;96657.97;5032840;28;20221;-81
2022/11/27 03:36:18;;;;;;;6.00;4.20;;;;;;;4.21;78.13;96649.53;5032749;28;20197;-81
2022/11/27 03:38:46;;;;;;;6.90;4.50;;;;;;;4.22;78.22;96649.41;5036111;28;20202;-82
2022/11/27 03:41:24;;;;;;;6.43;4.93;;;;;;;4.22;77.81;96644.31;5025284;28;20198;-80
2022/11/27 03:44:02;;;;;;;7.10;5.10;;;;;;;4.19;77.33;96647.09;5032751;28;20190;-80
2022/11/27 03:46:39;;;;;;;7.03;5.10;;;;;;;4.08;77.32;96632.56;5032542;28;20201;-79
2022/11/27 03:49:14;;;;;;;6.77;5.00;;;;;;;3.99;78.02;96635.78;5033039;28;20630;-80
2022/11/27 03:51:49;;;;;;;6.10;5.13;;;;;;;3.94;77.79;96632.75;5027140;28;20290;-79
2022/11/27 03:54:24;;;;;;;5.37;4.37;;;;;;;3.92;78.00;96626.94;5026976;28;20201;-79
2022/11/27 03:56:58;;;;;;;7.73;5.30;;;;;;;3.87;78.27;96623.09;5024978;28;20183;-80
2022/11/27 03:59:30;;;;;;;8.03;5.50;;;;;;;3.91;77.97;96621.94;5026318;28;20186;-80
2022/11/27 04:01:58;;;;;;;6.60;4.23;;;;;;;3.90;78.14;96623.69;5028694;28;20689;-81
2022/11/27 04:04:24;;;;;;;5.00;4.00;;;;;;;3.98;77.62;96629.06;5028804;28;20191;-80
2022/11/27 04:06:51;;;;;;;6.13;4.60;;;;;;;3.89;78.09;96629.69;5025749;28;20203;-79
2022/11/27 04:09:17;;;;;;;6.40;4.57;;;;;;;3.62;78.60;96619.75;5025786;28;20206;-80
2022/11/27 04:11:44;;;;;;;7.03;4.50;;;;;;;3.65;79.04;96621.28;5024185;28;20210;-82
2022/11/27 04:14:10;;;;;;;5.27;3.90;;;;;;;3.71;78.99;96624.19;5027232;28;20230;-82
2022/11/27 04:16:37;;;;;;;4.53;4.03;;;;;;;3.85;77.98;96628.28;5023576;28;20205;-79
2022/11/27 04:19:04;;;;;;;4.90;3.70;;;;;;;3.94;77.80;96626.84;5023513;28;20191;-79
2022/11/27 04:21:31;;;;;;;4.73;3.90;;;;;;;3.98;78.09;96629.06;5024496;28;20219;-80
2022/11/27 04:23:57;;;;;;;4.17;3.60;;;;;;;3.95;78.15;96628.47;5028635;28;20191;-80
2022/11/27 04:26:24;;;;;;;3.53;2.97;;;;;;;3.99;78.45;96632.41;5026082;28;20610;-80
2022/11/27 04:28:50;;;;;;;4.97;3.50;;;;;;;4.00;78.09;96636.59;5028284;28;20209;-82
2022/11/27 04:31:17;;;;;;;3.80;3.40;;;;;;;4.00;78.01;96636.59;5027401;28;20217;-82
2022/11/27 04:33:43;;;;;;;4.93;3.60;;;;;;;4.02;77.63;96637.31;5031336;28;20221;-79
2022/11/27 04:36:11;;;;;;;4.80;4.00;;;;;;;4.05;77.39;96630.22;5031311;28;20201;-79
2022/11/27 04:38:38;;;;;;;5.27;3.93;;;;;;;4.04;76.80;96630.34;5031156;28;20194;-82
2022/11/27 04:41:04;;;;;;;4.87;3.20;;;;;;;3.89;77.54;96627.16;5030927;28;20201;-79
2022/11/27 04:43:31;;;;;;;3.47;3.10;;;;;;;3.83;78.28;96625.06;5031077;28;20222;-81
2022/11/27 04:45:57;;;;;;;3.40;3.00;;;;;;;3.85;78.44;96624.97;5031140;28;20194;-82
2022/11/27 04:48:24;;;;;;;4.20;3.33;;;;;;;3.88;78.23;96627.25;5030967;28;20205;-79
2022/11/27 04:50:50;;;;;;;5.70;3.33;;;;;;;3.84;78.28;96628.44;5030641;28;20202;-81
2022/11/27 04:53:18;;;;;;;4.13;2.97;;;;;;;3.92;78.20;96629.47;5022580;28;20242;-78
2022/11/27 04:55:44;;;;;;;5.23;3.07;;;;;;;3.93;78.23;96633.66;5030479;28;20202;-79
2022/11/27 04:58:11;;;;;;;3.87;2.87;;;;;;;3.93;77.96;96636.22;5030654;28;20229;-79
2022/11/27 05:00:37;;;;;;;3.83;2.93;;;;;;;4.00;78.10;96631.50;5031165;28;20209;-80
2022/11/27 05:03:04;;;;;;;3.43;3.10;;;;;;;4.05;78.15;96642.16;5030831;28;20210;-81
2022/11/27 05:05:30;;;;;;;2.97;2.63;;;;;;;4.09;77.87;96641.00;5031309;28;20195;-81
2022/11/27 05:07:57;;;;;;;4.17;3.40;;;;;;;4.08;77.20;96637.66;5030344;28;20201;-80
2022/11/27 05:10:24;;;;;;;4.00;3.33;;;;;;;4.06;76.93;96634.41;5031017;28;20194;-81
2022/11/27 05:12:51;;;;;;;4.03;3.30;;;;;;;4.05;76.52;96631.97;5029672;28;20233;-81
2022/11/27 05:15:17;;;;;;;3.73;3.10;;;;;;;3.91;76.51;96629.59;5030383;28;20688;-79
2022/11/27 05:17:44;;;;;;;3.20;2.80;;;;;;;3.88;76.86;96624.72;5030498;28;20198;-80
2022/11/27 05:20:11;;;;;;;3.83;3.10;;;;;;;3.85;76.82;96627.50;5029786;28;20190;-81
2022/11/27 05:22:37;;;;;;;3.73;3.10;;;;;;;3.85;77.18;96619.88;5029766;28;20577;-80
2022/11/27 05:25:04;;;;;;;4.07;2.93;;;;;;;3.85;77.08;96622.41;5030104;28;20581;-80
2022/11/27 05:27:32;;;;;;;4.40;3.57;;;;;;;3.80;77.11;96620.19;5029730;28;20459;-80
2022/11/27 05:29:58;;;;;;;3.47;2.63;;;;;;;3.83;77.26;96624.25;5029723;28;20198;-83
2022/11/27 05:32:25;;;;;;;3.20;2.90;;;;;;;3.84;77.37;96636.88;5029898;28;20226;-81
2022/11/27 05:34:51;;;;;;;4.10;3.00;;;;;;;3.85;76.77;96635.16;5029347;28;20218;-80
2022/11/27 05:37:18;;;;;;;3.80;3.27;;;;;;;3.80;76.66;96638.00;5030310;28;20204;-80
2022/11/27 05:39:44;;;;;;;3.53;3.10;;;;;;;3.77;76.61;96631.41;5029832;28;20202;-79
2022/11/27 05:42:10;;;;;;;3.50;3.20;;;;;;;3.71;76.54;96626.72;5029294;28;20222;-80
2022/11/27 05:44:38;;;;;;;3.60;3.30;;;;;;;3.67;76.35;96620.22;5030057;28;20201;-79
2022/11/27 05:47:05;;;;;;;5.30;3.30;;;;;;;3.62;75.89;96617.22;5029278;28;20203;-82
2022/11/27 05:49:31;;;;;;;3.87;3.10;;;;;;;3.63;76.40;96612.94;5028505;28;20202;-79
2022/11/27 05:51:58;;;;;;;3.73;3.13;;;;;;;3.57;76.22;96615.91;5029786;28;20593;-80
2022/11/27 05:54:24;;;;;;;4.80;3.57;;;;;;;3.39;77.01;96612.91;5029704;28;20222;-81
2022/11/27 05:56:51;;;;;;;3.30;3.00;;;;;;;3.30;77.69;96616.09;5029084;28;20198;-82
2022/11/27 05:59:17;;;;;;;5.03;3.60;;;;;;;3.26;77.54;96619.78;5030182;28;20641;-81
2022/11/27 06:01:45;;;;;;;3.37;3.07;;;;;;;3.23;77.89;96618.25;5029753;28;20581;-81
2022/11/27 06:04:11;;;;;;;4.73;3.07;;;;;;;3.29;78.19;96614.44;5029445;28;20201;-79
2022/11/27 06:06:38;;;;;;;4.13;2.93;;;;;;;3.43;77.93;96615.13;5028656;28;20205;-80
2022/11/27 06:09:04;;;;;;;4.20;3.40;;;;;;;3.53;77.42;96614.47;5029167;28;20202;-80
2022/11/27 06:11:31;;;;;;;4.13;3.17;;;;;;;3.53;77.04;96599.19;5029513;28;20218;-81
2022/11/27 06:13:57;;;;;;;3.33;3.03;;;;;;;3.57;76.56;96605.72;5029161;28;20222;-81
2022/11/27 06:16:24;;;;;;;3.73;3.27;;;;;;;3.56;75.88;96594.72;5029150;28;20583;-79
2022/11/27 06:18:53;;;;;;;3.90;3.30;;;;;;;3.35;75.70;96596.22;5031052;28;20202;-79
2022/11/27 06:21:21;;;;;;;3.63;3.27;;;;;;;3.28;76.71;96595.81;5033031;28;20202;-79
2022/11/27 06:23:49;;;;;;;3.40;3.10;;;;;;;3.28;77.22;96598.38;5029947;28;20186;-79
2022/11/27 06:26:17;;;;;;;4.57;3.47;;;;;;;3.39;77.14;96606.09;5029901;28;20281;-81
2022/11/27 06:28:45;;;;;;;3.83;3.17;;;;;;;3.36;75.76;96611.38;5029587;28;20202;-81
2022/11/27 06:31:13;;;;;;;3.30;2.80;;;;;;;3.37;76.01;96610.47;5020191;28;20221;-82
2022/11/27 06:33:39;;;;;;;3.43;3.07;;;;;;;3.30;75.71;96616.91;5024904;28;20213;-79
2022/11/27 06:36:08;;;;;;;4.00;2.97;;;;;;;3.23;75.88;96609.81;5029528;28;20205;-81
2022/11/27 06:38:36;;;;;;;3.13;2.83;;;;;;;3.15;76.11;96609.50;5029119;28;20210;-82
2022/11/27 06:41:04;;;;;;;3.23;2.83;;;;;;;3.08;76.98;96612.47;5029570;28;20233;-82
2022/11/27 06:43:31;;;;;;;4.50;2.97;;;;;;;3.08;76.74;96609.94;5029463;28;20218;-81
2022/11/27 06:46:00;;;;;;;5.03;3.10;;;;;;;3.16;76.37;96600.97;5032577;28;20228;-81
2022/11/27 06:48:27;;;;;;;3.87;2.90;;;;;;;3.18;76.53;96597.41;5029184;28;20285;-79
2022/11/27 06:50:54;;;;;;;3.60;3.00;;;;;;;3.02;77.22;96599.38;5029144;28;20190;-82
2022/11/27 06:53:22;;;;;;;5.40;2.97;;;;;;;3.03;77.43;96595.91;5029157;28;20222;-81
2022/11/27 06:55:48;;;;;;;2.97;2.60;;;;;;;3.07;77.61;96587.16;5029104;28;20194;-81
2022/11/27 06:58:15;;;;;;;2.87;2.50;;;;;;;3.21;77.04;96596.38;5028543;28;20202;-81
2022/11/27 07:00:41;;;;;;;3.50;3.00;;;;;;;3.25;76.90;96590.16;5029105;28;21972;-80
2022/11/27 07:03:08;;;;;;;3.00;2.67;;;;;;;3.09;77.24;96593.75;5028973;28;20740;-80
2022/11/27 07:05:36;;;;;;;3.10;2.80;;;;;;;3.16;77.08;96593.31;5028802;28;20197;-82
2022/11/27 07:08:04;;;;;;;3.17;2.60;;;;;;;3.22;77.22;96588.63;5028389;28;20201;-82
2022/11/27 07:10:37;;;;;;;3.50;2.87;;;;;;;3.19;77.62;96593.13;5028904;28;20681;-81
2022/11/27 07:13:04;;;;;;;4.03;2.97;;;;;;;3.25;77.78;96595.25;5027589;28;20697;-81
2022/11/27 07:15:30;;;;;;;2.80;2.60;;;;;;;3.38;77.58;96590.91;5028603;28;20681;-82
2022/11/27 07:17:57;;;;;;;24.40;16.10;;;;;;;3.45;77.39;96587.84;5030688;28;20194;-80
2022/11/27 07:20:24;;;;;;;9.27;6.73;;;;;;;3.63;76.78;96595.09;5032681;28;20203;-80
2022/11/27 07:22:50;;;;;;;4.03;3.53;;;;;;;3.75;75.99;96594.22;5033103;28;20233;-81
2022/11/27 07:25:17;;;;;;;4.70;3.60;;;;;;;3.83;76.13;96591.13;5032441;28;20202;-80
2022/11/27 07:27:47;;;;;;;4.00;3.60;;;;;;;3.85;75.44;96584.19;5032988;28;20206;-82
2022/11/27 07:30:14;;;;;;;4.97;3.57;;;;;;;3.92;76.05;96585.38;5033166;28;20241;-82
2022/11/27 07:32:40;;;;;;;5.20;3.80;;;;;;;4.00;75.75;96585.63;5033376;28;20218;-81
2022/11/27 07:35:08;;;;;;;4.87;4.40;;;;;;;4.08;75.61;96585.88;5032337;28;20229;-82
2022/11/27 07:37:34;;;;;;;7.20;5.07;;;;;;;4.15;75.33;96589.59;5032425;28;20315;-82
2022/11/27 07:40:01;;;;;;;9.63;6.30;;;;;;;4.22;75.52;96583.16;5034338;28;20195;-81
2022/11/27 07:42:28;;;;;;;12.13;8.80;;;;;;;4.26;75.35;96586.25;5033862;28;20887;-83
2022/11/27 07:44:56;;;;;;;15.40;10.40;;;;;;;4.33;75.27;96575.50;5033734;28;20198;-80
2022/11/27 07:47:22;;;;;;;15.07;9.87;;;;;;;4.33;74.96;96574.69;5033549;28;20198;-82
2022/11/27 07:49:49;;;;;;;11.80;9.03;;;;;;;4.24;75.84;96570.25;5034323;28;20247;-80
2022/11/27 07:52:15;;;;;;;14.83;11.77;;;;;;;4.02;76.58;96566.75;5034502;28;20225;-83
2022/11/27 07:54:42;;;;;;;18.20;12.27;;;;;;;3.93;77.93;96562.31;5034718;28;20222;-82
2022/11/27 07:57:08;;;;;;;11.83;10.33;;;;;;;4.04;77.97;96559.78;5033901;28;20198;-84
2022/11/27 07:59:34;;;;;;;20.80;16.50;;;;;;;4.13;78.59;96565.97;5034001;28;20198;-82
2022/11/27 08:02:02;;;;;;;26.63;19.97;;;;;;;4.23;78.59;96561.84;5034360;28;20222;-82
2022/11/27 08:04:36;;;;;;;8.90;7.37;;;;;;;4.20;79.28;96564.59;5033563;28;20198;-81
2022/11/27 08:07:03;;;;;;;8.87;7.97;;;;;;;4.27;79.07;96568.31;5033470;28;20209;-82
2022/11/27 08:09:29;;;;;;;9.10;7.27;;;;;;;4.37;78.94;96558.25;5033538;28;20206;-83
2022/11/27 08:11:56;;;;;;;7.70;6.90;;;;;;;4.44;78.98;96552.56;5032653;28;20222;-82
2022/11/27 08:14:22;;;;;;;7.97;6.77;;;;;;;4.53;79.58;96558.72;5034093;28;20230;-84
2022/11/27 08:16:49;;;;;;;7.80;7.00;;;;;;;4.73;78.97;96562.31;5033542;28;20598;-80
2022/11/27 08:19:17;;;;;;;8.13;5.77;;;;;;;4.92;78.21;96554.88;5033153;28;20202;-82
2022/11/27 08:21:43;;;;;;;8.40;6.50;;;;;;;5.09;77.59;96551.84;5033663;28;20229;-81
2022/11/27 08:24:09;;;;;;;8.13;7.33;;;;;;;5.17;76.70;96536.75;5033212;28;20198;-81
2022/11/27 08:26:36;;;;;;;9.30;8.27;;;;;;;5.14;76.60;96534.44;5033423;28;20209;-81
2022/11/27 08:29:03;;;;;;;7.67;6.87;;;;;;;5.15;76.17;96533.50;5032266;28;20213;-81
2022/11/27 08:31:29;;;;;;;6.60;5.93;;;;;;;5.18;76.73;96537.56;5033053;28;20206;-82
2022/11/27 08:33:56;;;;;;;9.97;7.97;;;;;;;5.28;76.94;96533.34;5033459;28;20721;-81
2022/11/27 08:36:26;;;;;;;14.13;11.03;;;;;;;5.43;75.93;96533.88;5033407;28;20206;-83
2022/11/27 08:38:56;;;;;;;5.30;4.80;;;;;;;5.35;75.76;96536.25;5032662;28;20264;-81
2022/11/27 08:41:22;;;;;;;4.60;4.17;;;;;;;5.50;75.55;96538.38;5033499;28;20203;-81
2022/11/27 08:43:48;;;;;;;4.97;4.40;;;;;;;5.55;78.80;96540.59;5034294;28;20206;-81
2022/11/27 08:46:15;;;;;;;4.60;3.67;;;;;;;5.96;81.04;96549.28;5045185;28;20209;-82
2022/11/27 08:48:42;;;;;;;4.20;3.80;;;;;;;6.21;75.41;96551.44;5041288;28;20241;-81
2022/11/27 08:51:11;;;;;;;4.70;4.13;;;;;;;6.33;73.18;96541.97;5037582;28;20616;-81
2022/11/27 08:53:39;;;;;;;5.47;4.77;;;;;;;6.15;72.82;96536.59;5022144;28;20222;-81
2022/11/27 08:56:07;;;;;;;4.90;4.40;;;;;;;6.09;72.74;96532.81;5024261;28;20198;-82
2022/11/27 08:58:34;;;;;;;5.43;4.93;;;;;;;6.13;72.87;96541.03;5031431;28;20198;-82
2022/11/27 09:01:07;;;;;;;5.47;4.43;;;;;;;6.16;71.88;96536.47;5030280;28;20624;-81
2022/11/27 09:03:33;;;;;;;4.90;4.20;;;;;;;6.27;72.86;96529.66;5027932;28;20214;-80
2022/11/27 09:06:00;;;;;;;5.50;4.80;;;;;;;6.44;72.29;96529.88;5030286;28;20201;-81
2022/11/27 09:08:26;;;;;;;4.43;4.03;;;;;;;6.47;70.98;96534.75;5031539;28;20198;-81
2022/11/27 09:10:54;;;;;;;4.70;4.10;;;;;;;6.81;76.15;96535.28;5031062;28;20654;-83
2022/11/27 09:13:21;;;;;;;4.40;4.00;;;;;;;7.18;72.82;96532.94;5030027;28;20628;-82
2022/11/27 09:15:47;;;;;;;4.33;3.93;;;;;;;7.42;70.14;96524.91;5029913;28;20780;-82
2022/11/27 09:18:13;;;;;;;4.17;3.83;;;;;;;7.47;67.37;96527.88;5031242;28;20759;-81
2022/11/27 09:20:40;;;;;;;4.13;3.80;;;;;;;7.55;67.46;96522.06;5027026;28;20198;-80
2022/11/27 09:23:06;;;;;;;4.60;4.20;;;;;;;7.48;66.34;96514.13;5021452;28;20222;-82
2022/11/27 09:25:33;;;;;;;3.43;3.10;;;;;;;7.72;66.78;96525.72;5030275;28;20198;-82
2022/11/27 09:28:01;;;;;;;3.90;3.60;;;;;;;7.76;65.38;96516.81;5029729;28;20195;-81
2022/11/27 09:30:27;;;;;;;4.17;3.50;;;;;;;7.84;63.86;96529.78;5030511;28;20711;-83
2022/11/27 09:32:54;;;;;;;5.13;3.47;;;;;;;7.76;63.69;96515.06;5030648;28;20216;-83
2022/11/27 09:35:20;;;;;;;4.00;3.70;;;;;;;7.78;63.96;96515.72;5030540;28;20643;-83
2022/11/27 09:37:47;;;;;;;3.83;3.53;;;;;;;7.65;65.24;96504.94;5029532;28;20571;-83
2022/11/27 09:40:15;;;;;;;4.83;3.03;;;;;;;7.74;65.12;96504.13;5030217;28;20198;-83
2022/11/27 09:42:49;;;;;;;4.33;3.53;;;;;;;7.55;66.02;96493.88;5029793;28;20434;-82
2022/11/27 09:45:18;;;;;;;3.50;3.10;;;;;;;7.56;65.87;96493.75;5029898;28;20194;-83
2022/11/27 09:47:49;;;;;;;3.20;2.90;;;;;;;7.74;65.27;96491.31;5034149;28;20198;-81
2022/11/27 09:50:17;;;;;;;5.43;3.47;;;;;;;7.92;63.81;96487.09;5035049;28;20197;-81
2022/11/27 09:52:48;;;;;;;3.43;3.13;;;;;;;8.09;61.89;96483.00;5029345;28;20649;-80
2022/11/27 09:55:20;;;;;;;4.23;3.57;;;;;;;7.95;62.87;96468.06;5029166;28;20213;-82
2022/11/27 09:57:55;;;;;;;4.80;3.40;;;;;;;7.68;64.31;96461.13;5029079;28;20558;-82
2022/11/27 10:00:23;;;;;;;3.50;3.17;;;;;;;7.90;63.83;96452.28;5029008;28;20194;-81
2022/11/27 10:02:50;;;;;;;3.40;3.10;;;;;;;7.85;63.41;96455.28;5031513;28;20226;-81
2022/11/27 10:05:20;;;;;;;3.87;3.57;;;;;;;7.89;62.76;96454.03;5029170;28;20661;-81
2022/11/27 10:08:08;;;;;;;4.87;3.30;;;;;;;7.88;62.62;96452.44;5029199;28;20204;-81
2022/11/27 10:10:40;;;;;;;3.63;3.20;;;;;;;7.99;62.95;96448.91;5021208;28;20190;-79
2022/11/27 10:13:17;;;;;;;3.17;2.80;;;;;;;8.14;63.13;96444.94;5028551;28;20220;-82
2022/11/27 10:15:51;;;;;;;3.63;3.27;;;;;;;8.13;61.40;96439.94;5029572;28;20209;-82
2022/11/27 10:18:28;;;;;;;3.23;2.93;;;;;;;8.14;61.11;96429.53;5021398;28;20198;-82
2022/11/27 10:21:00;;;;;;;3.50;3.10;;;;;;;8.26;62.06;96427.63;5027929;28;20193;-81
2022/11/27 10:23:40;;;;;;;3.37;3.10;;;;;;;8.37;61.35;96426.66;5028500;28;20221;-81
2022/11/27 10:26:15;;;;;;;3.80;3.40;;;;;;;8.40;60.89;96416.13;5029198;28;20186;-81
2022/11/27 10:28:48;;;;;;;3.90;3.40;;;;;;;8.52;60.44;96409.81;5028929;28;20198;-82
2022/11/27 10:31:22;;;;;;;4.03;3.63;;;;;;;8.64;60.13;96406.94;5028531;28;20267;-81
2022/11/27 10:33:53;;;;;;;3.70;3.40;;;;;;;8.57;59.33;96394.81;5028916;28;20205;-80
2022/11/27 10:36:28;;;;;;;4.07;3.67;;;;;;;8.45;61.45;96398.53;5029456;28;20556;-80
2022/11/27 10:38:56;;;;;;;4.30;3.90;;;;;;;8.42;62.63;96399.63;5020101;28;20200;-82
2022/11/27 10:41:28;;;;;;;5.10;4.60;;;;;;;8.34;63.34;96407.22;5028889;28;20206;-80
2022/11/27 10:43:58;;;;;;;4.70;4.30;;;;;;;8.45;63.78;96398.53;5026199;28;20197;-82
2022/11/27 10:46:29;;;;;;;5.40;4.90;;;;;;;8.32;63.07;96391.97;5028473;28;20198;-82
2022/11/27 10:48:57;;;;;;;4.60;4.20;;;;;;;8.53;62.32;96393.47;5029505;28;20205;-82
2022/11/27 10:51:30;;;;;;;34.33;26.30;;;;;;;8.80;63.09;96387.50;5028883;28;20198;-81
2022/11/27 10:53:59;;;;;;;10.13;9.03;;;;;;;9.01;61.76;96388.03;5032433;28;20197;-82
2022/11/27 10:56:47;;;;;;;6.80;6.20;;;;;;;9.24;61.50;96394.31;5032450;28;20225;-80
2022/11/27 10:59:19;;;;;;;4.20;3.80;;;;;;;9.44;60.54;96392.38;5032974;28;20187;-79
2022/11/27 11:01:48;;;;;;;4.60;4.20;;;;;;;9.38;59.89;96392.19;5036443;28;20340;-81
2022/11/27 11:04:20;;;;;;;5.80;3.70;;;;;;;9.04;58.73;96387.75;5032735;28;20206;-82
2022/11/27 11:06:49;;;;;;;4.67;3.70;;;;;;;8.94;58.18;96384.44;5032644;28;20191;-81
2022/11/27 11:09:24;;;;;;;3.83;3.30;;;;;;;8.71;58.35;96380.66;5031580;28;20213;-81
2022/11/27 11:11:51;;;;;;;3.73;3.40;;;;;;;8.58;58.57;96379.28;5024681;28;20209;-82
2022/11/27 11:14:20;;;;;;;3.77;3.47;;;;;;;8.51;59.26;96379.97;5032311;28;20201;-80
2022/11/27 11:16:48;;;;;;;4.17;3.70;;;;;;;8.82;60.22;96388.19;5032000;28;20206;-80
2022/11/27 11:19:26;;;;;;;5.43;4.93;;;;;;;8.96;62.26;96390.22;5031604;28;20198;-81
2022/11/27 11:21:52;;;;;;;5.03;4.53;;;;;;;9.04;62.52;96389.50;5029284;28;20221;-81
2022/11/27 11:24:24;;;;;;;4.80;4.40;;;;;;;9.16;62.35;96384.00;5031866;28;20207;-82
2022/11/27 11:26:54;;;;;;;4.90;4.50;;;;;;;9.17;62.68;96385.59;5024423;28;20222;-81
2022/11/27 11:29:34;;;;;;;22.60;18.03;;;;;;;9.25;62.05;96384.84;5032332;28;20201;-82
2022/11/27 11:32:08;;;;;;;18.43;14.73;;;;;;;9.33;62.13;96383.16;5031977;28;20217;-82
2022/11/27 11:34:36;;;;;;;7.23;6.53;;;;;;;9.49;61.23;96379.09;5032742;28;20562;-82
2022/11/27 11:37:05;;;;;;;4.67;4.27;;;;;;;9.58;61.12;96383.34;5032160;28;20198;-80
2022/11/27 11:39:36;;;;;;;4.50;4.10;;;;;;;9.49;60.41;96381.66;5031810;28;20210;-80
2022/11/27 11:42:10;;;;;;;4.43;4.03;;;;;;;9.51;60.61;96379.75;5032097;28;20211;-82
2022/11/27 11:44:38;;;;;;;4.73;4.33;;;;;;;9.44;60.48;96382.09;5032238;28;20261;-81
2022/11/27 11:47:15;;;;;;;4.60;4.20;;;;;;;9.44;60.68;96376.97;5031603;28;20202;-81
2022/11/27 11:49:41;;;;;;;7.43;4.50;;;;;;;9.43;60.34;96377.91;5031981;28;20198;-80